sensor_id;sensor_type;location;lat;lon;timestamp;P1;P2;P0
70554;PMS5003;58104;52.744;15.242;2023-02-28T00:02:09;0;0;
70554;PMS5003;58104;52.744;15.242;2023-02-28T00:04:35;2;0;
70554;PMS5003;58104;52.744;15.242;2023-02-28T00:07:00;0;0;
70554;PMS5003;58104;52.744;15.242;2023-02-28T00:09:25;0;0;
70554;PMS5003;58104;52.744;15.242;2023-02-28T00:11:51;0;0;
70554;PMS5003;58104;52.744;15.242;2023-02-28T00:14:16;0;0;
70554;PMS5003;58104;52.744;15.242;2023-02-28T00:16:42;0;0;
70554;PMS5003;58104;52.744;15.242;2023-02-28T00:19:07;0;0;
70554;PMS5003;58104;52.744;15.242;2023-02-28T00:21:33;0;0;
70554;PMS5003;58104;52.744;15.242;2023-02-28T00:23:58;0;0;
70554;PMS5003;58104;52.744;15.242;2023-02-28T00:26:23;1;1;
70554;PMS5003;58104;52.744;15.242;2023-02-28T00:28:49;1;1;
70554;PMS5003;58104;52.744;15.242;2023-02-28T00:31:14;0;0;
70554;PMS5003;58104;52.744;15.242;2023-02-28T00:33:40;0;0;
70554;PMS5003;58104;52.744;15.242;2023-02-28T00:36:06;1;1;
70554;PMS5003;58104;52.744;15.242;2023-02-28T00:38:31;1;1;
70554;PMS5003;58104;52.744;15.242;2023-02-28T00:40:56;1;1;
70554;PMS5003;58104;52.744;15.242;2023-02-28T00:43:21;1;1;
70554;PMS5003;58104;52.744;15.242;2023-02-28T00:45:47;1;1;
70554;PMS5003;58104;52.744;15.242;2023-02-28T00:48:12;1;1;
70554;PMS5003;58104;52.744;15.242;2023-02-28T00:50:38;1;1;
70554;PMS5003;58104;52.744;15.242;2023-02-28T00:53:03;1;1;
70554;PMS5003;58104;52.744;15.242;2023-02-28T00:55:29;2;1;
70554;PMS5003;58104;52.744;15.242;2023-02-28T00:57:54;1;1;
70554;PMS5003;58104;52.744;15.242;2023-02-28T01:00:20;2;1;
70554;PMS5003;58104;52.744;15.242;2023-02-28T01:02:45;1;1;
70554;PMS5003;58104;52.744;15.242;2023-02-28T01:05:10;0;0;
70554;PMS5003;58104;52.744;15.242;2023-02-28T01:07:36;2;1;
70554;PMS5003;58104;52.744;15.242;2023-02-28T01:10:01;0;0;
70554;PMS5003;58104;52.744;15.242;2023-02-28T01:12:27;1;1;
70554;PMS5003;58104;52.744;15.242;2023-02-28T01:14:52;2;1;
70554;PMS5003;58104;52.744;15.242;2023-02-28T01:17:17;2;2;
70554;PMS5003;58104;52.744;15.242;2023-02-28T01:19:43;1;1;
70554;PMS5003;58104;52.744;15.242;2023-02-28T01:22:08;0;0;
70554;PMS5003;58104;52.744;15.242;2023-02-28T01:24:34;2;2;
70554;PMS5003;58104;52.744;15.242;2023-02-28T01:26:59;2;2;
70554;PMS5003;58104;52.744;15.242;2023-02-28T01:29:25;1;1;
70554;PMS5003;58104;52.744;15.242;2023-02-28T01:31:50;4;3;
70554;PMS5003;58104;52.744;15.242;2023-02-28T01:34:16;4;2;
70554;PMS5003;58104;52.744;15.242;2023-02-28T01:36:41;7;3;
70554;PMS5003;58104;52.744;15.242;2023-02-28T01:39:06;1;1;
70554;PMS5003;58104;52.744;15.242;2023-02-28T01:41:32;3;2;
70554;PMS5003;58104;52.744;15.242;2023-02-28T01:43:59;2;2;
70554;PMS5003;58104;52.744;15.242;2023-02-28T01:46:23;2;2;
70554;PMS5003;58104;52.744;15.242;2023-02-28T01:48:49;2;2;
70554;PMS5003;58104;52.744;15.242;2023-02-28T01:51:14;2;2;
70554;PMS5003;58104;52.744;15.242;2023-02-28T01:53:41;4;3;
70554;PMS5003;58104;52.744;15.242;2023-02-28T01:56:05;1;1;
70554;PMS5003;58104;52.744;15.242;2023-02-28T01:58:30;2;2;
70554;PMS5003;58104;52.744;15.242;2023-02-28T02:00:55;8;6;
70554;PMS5003;58104;52.744;15.242;2023-02-28T02:03:20;1;1;
70554;PMS5003;58104;52.744;15.242;2023-02-28T02:05:46;3;3;
70554;PMS5003;58104;52.744;15.242;2023-02-28T02:08:12;3;3;
70554;PMS5003;58104;52.744;15.242;2023-02-28T02:10:39;2;2;
70554;PMS5003;58104;52.744;15.242;2023-02-28T02:13:06;4;4;
70554;PMS5003;58104;52.744;15.242;2023-02-28T02:15:29;3;3;
70554;PMS5003;58104;52.744;15.242;2023-02-28T02:17:54;2;2;
70554;PMS5003;58104;52.744;15.242;2023-02-28T02:25:12;5;3;
70554;PMS5003;58104;52.744;15.242;2023-02-28T02:34:53;1;1;
70554;PMS5003;58104;52.744;15.242;2023-02-28T02:37:21;4;3;
70554;PMS5003;58104;52.744;15.242;2023-02-28T02:39:45;3;3;
70554;PMS5003;58104;52.744;15.242;2023-02-28T02:42:11;2;2;
70554;PMS5003;58104;52.744;15.242;2023-02-28T02:44:34;2;2;
70554;PMS5003;58104;52.744;15.242;2023-02-28T02:46:59;2;2;
70554;PMS5003;58104;52.744;15.242;2023-02-28T02:49:24;1;1;
70554;PMS5003;58104;52.744;15.242;2023-02-28T02:51:49;4;4;
70554;PMS5003;58104;52.744;15.242;2023-02-28T02:54:15;3;3;
70554;PMS5003;58104;52.744;15.242;2023-02-28T02:56:40;4;3;
70554;PMS5003;58104;52.744;15.242;2023-02-28T02:59:07;8;4;
70554;PMS5003;58104;52.744;15.242;2023-02-28T03:01:31;3;3;
70554;PMS5003;58104;52.744;15.242;2023-02-28T03:03:56;5;4;
70554;PMS5003;58104;52.744;15.242;2023-02-28T03:06:21;2;2;
70554;PMS5003;58104;52.744;15.242;2023-02-28T03:08:47;3;3;
70554;PMS5003;58104;52.744;15.242;2023-02-28T03:11:13;5;4;
70554;PMS5003;58104;52.744;15.242;2023-02-28T03:13:42;4;4;
70554;PMS5003;58104;52.744;15.242;2023-02-28T03:16:08;6;5;
70554;PMS5003;58104;52.744;15.242;2023-02-28T03:18:30;3;3;
70554;PMS5003;58104;52.744;15.242;2023-02-28T03:20:56;3;3;
70554;PMS5003;58104;52.744;15.242;2023-02-28T03:23:21;6;4;
70554;PMS5003;58104;52.744;15.242;2023-02-28T03:25:49;7;5;
70554;PMS5003;58104;52.744;15.242;2023-02-28T03:28:12;7;4;
70554;PMS5003;58104;52.744;15.242;2023-02-28T03:30:39;5;3;
70554;PMS5003;58104;52.744;15.242;2023-02-28T03:33:03;5;5;
70554;PMS5003;58104;52.744;15.242;2023-02-28T03:35:28;6;5;
70554;PMS5003;58104;52.744;15.242;2023-02-28T03:37:53;4;4;
70554;PMS5003;58104;52.744;15.242;2023-02-28T03:40:19;7;5;
70554;PMS5003;58104;52.744;15.242;2023-02-28T03:42:44;5;5;
70554;PMS5003;58104;52.744;15.242;2023-02-28T03:45:10;6;5;
70554;PMS5003;58104;52.744;15.242;2023-02-28T03:47:35;4;4;
70554;PMS5003;58104;52.744;15.242;2023-02-28T03:50:00;5;5;
70554;PMS5003;58104;52.744;15.242;2023-02-28T03:52:25;5;5;
70554;PMS5003;58104;52.744;15.242;2023-02-28T03:54:51;6;4;
70554;PMS5003;58104;52.744;15.242;2023-02-28T03:57:17;5;5;
70554;PMS5003;58104;52.744;15.242;2023-02-28T03:59:42;6;6;
70554;PMS5003;58104;52.744;15.242;2023-02-28T04:02:07;6;6;
70554;PMS5003;58104;52.744;15.242;2023-02-28T04:04:32;3;3;
70554;PMS5003;58104;52.744;15.242;2023-02-28T04:07:01;4;4;
70554;PMS5003;58104;52.744;15.242;2023-02-28T04:09:23;6;6;
70554;PMS5003;58104;52.744;15.242;2023-02-28T04:11:49;5;5;
70554;PMS5003;58104;52.744;15.242;2023-02-28T04:14:14;3;3;
70554;PMS5003;58104;52.744;15.242;2023-02-28T04:16:40;6;5;
70554;PMS5003;58104;52.744;15.242;2023-02-28T04:19:06;4;4;
70554;PMS5003;58104;52.744;15.242;2023-02-28T04:21:30;3;3;
70554;PMS5003;58104;52.744;15.242;2023-02-28T04:23:56;5;5;
70554;PMS5003;58104;52.744;15.242;2023-02-28T04:26:21;5;5;
70554;PMS5003;58104;52.744;15.242;2023-02-28T04:28:46;7;6;
70554;PMS5003;58104;52.744;15.242;2023-02-28T04:31:12;6;6;
70554;PMS5003;58104;52.744;15.242;2023-02-28T04:33:37;3;3;
70554;PMS5003;58104;52.744;15.242;2023-02-28T04:36:04;4;4;
70554;PMS5003;58104;52.744;15.242;2023-02-28T04:38:28;5;5;
70554;PMS5003;58104;52.744;15.242;2023-02-28T04:40:53;3;3;
70554;PMS5003;58104;52.744;15.242;2023-02-28T04:43:19;5;4;
70554;PMS5003;58104;52.744;15.242;2023-02-28T04:45:44;6;6;
70554;PMS5003;58104;52.744;15.242;2023-02-28T04:48:09;4;4;
70554;PMS5003;58104;52.744;15.242;2023-02-28T04:50:35;9;6;
70554;PMS5003;58104;52.744;15.242;2023-02-28T04:53:00;3;3;
70554;PMS5003;58104;52.744;15.242;2023-02-28T04:55:26;3;3;
70554;PMS5003;58104;52.744;15.242;2023-02-28T04:57:51;3;3;
70554;PMS5003;58104;52.744;15.242;2023-02-28T05:00:17;6;5;
70554;PMS5003;58104;52.744;15.242;2023-02-28T05:02:42;5;5;
70554;PMS5003;58104;52.744;15.242;2023-02-28T05:05:07;6;5;
70554;PMS5003;58104;52.744;15.242;2023-02-28T05:07:33;6;4;
70554;PMS5003;58104;52.744;15.242;2023-02-28T05:09:58;4;4;
70554;PMS5003;58104;52.744;15.242;2023-02-28T05:12:23;8;8;
70554;PMS5003;58104;52.744;15.242;2023-02-28T05:14:49;5;4;
70554;PMS5003;58104;52.744;15.242;2023-02-28T05:17:14;5;5;
70554;PMS5003;58104;52.744;15.242;2023-02-28T05:19:40;5;4;
70554;PMS5003;58104;52.744;15.242;2023-02-28T05:22:11;4;4;
70554;PMS5003;58104;52.744;15.242;2023-02-28T05:24:30;7;6;
70554;PMS5003;58104;52.744;15.242;2023-02-28T05:26:56;5;5;
70554;PMS5003;58104;52.744;15.242;2023-02-28T05:29:21;5;5;
70554;PMS5003;58104;52.744;15.242;2023-02-28T05:31:47;5;5;
70554;PMS5003;58104;52.744;15.242;2023-02-28T05:34:12;6;6;
70554;PMS5003;58104;52.744;15.242;2023-02-28T05:36:38;7;7;
70554;PMS5003;58104;52.744;15.242;2023-02-28T05:39:04;5;5;
70554;PMS5003;58104;52.744;15.242;2023-02-28T05:41:29;6;4;
70554;PMS5003;58104;52.744;15.242;2023-02-28T05:43:54;5;5;
70554;PMS5003;58104;52.744;15.242;2023-02-28T05:46:19;8;5;
70554;PMS5003;58104;52.744;15.242;2023-02-28T05:48:46;8;6;
70554;PMS5003;58104;52.744;15.242;2023-02-28T05:51:10;6;4;
70554;PMS5003;58104;52.744;15.242;2023-02-28T05:53:36;9;6;
70554;PMS5003;58104;52.744;15.242;2023-02-28T05:56:01;6;6;
70554;PMS5003;58104;52.744;15.242;2023-02-28T05:58:27;5;5;
70554;PMS5003;58104;52.744;15.242;2023-02-28T06:00:52;6;6;
70554;PMS5003;58104;52.744;15.242;2023-02-28T06:03:18;7;6;
70554;PMS5003;58104;52.744;15.242;2023-02-28T06:05:43;4;4;
70554;PMS5003;58104;52.744;15.242;2023-02-28T06:08:08;8;7;
70554;PMS5003;58104;52.744;15.242;2023-02-28T06:10:34;10;6;
70554;PMS5003;58104;52.744;15.242;2023-02-28T06:12:59;7;7;
70554;PMS5003;58104;52.744;15.242;2023-02-28T06:15:24;6;6;
70554;PMS5003;58104;52.744;15.242;2023-02-28T06:17:50;9;7;
70554;PMS5003;58104;52.744;15.242;2023-02-28T06:20:15;7;7;
70554;PMS5003;58104;52.744;15.242;2023-02-28T06:22:41;7;7;
70554;PMS5003;58104;52.744;15.242;2023-02-28T06:25:06;13;11;
70554;PMS5003;58104;52.744;15.242;2023-02-28T06:27:31;9;7;
70554;PMS5003;58104;52.744;15.242;2023-02-28T06:29:56;12;10;
70554;PMS5003;58104;52.744;15.242;2023-02-28T06:32:22;9;9;
70554;PMS5003;58104;52.744;15.242;2023-02-28T06:34:47;12;12;
70554;PMS5003;58104;52.744;15.242;2023-02-28T06:37:12;14;11;
70554;PMS5003;58104;52.744;15.242;2023-02-28T06:39:38;12;12;
70554;PMS5003;58104;52.744;15.242;2023-02-28T06:42:03;20;18;
70554;PMS5003;58104;52.744;15.242;2023-02-28T06:44:29;21;21;
70554;PMS5003;58104;52.744;15.242;2023-02-28T06:46:54;43;38;
70554;PMS5003;58104;52.744;15.242;2023-02-28T06:49:19;42;39;
70554;PMS5003;58104;52.744;15.242;2023-02-28T06:51:44;37;31;
70554;PMS5003;58104;52.744;15.242;2023-02-28T06:54:10;37;35;
70554;PMS5003;58104;52.744;15.242;2023-02-28T06:56:36;38;32;
70554;PMS5003;58104;52.744;15.242;2023-02-28T06:59:02;41;36;
70554;PMS5003;58104;52.744;15.242;2023-02-28T07:01:27;43;39;
70554;PMS5003;58104;52.744;15.242;2023-02-28T07:03:52;37;34;
70554;PMS5003;58104;52.744;15.242;2023-02-28T07:06:18;40;35;
70554;PMS5003;58104;52.744;15.242;2023-02-28T07:08:44;51;43;
70554;PMS5003;58104;52.744;15.242;2023-02-28T07:11:10;64;59;
70554;PMS5003;58104;52.744;15.242;2023-02-28T07:13:35;74;64;
70554;PMS5003;58104;52.744;15.242;2023-02-28T07:16:01;92;84;
70554;PMS5003;58104;52.744;15.242;2023-02-28T07:18:26;91;78;
70554;PMS5003;58104;52.744;15.242;2023-02-28T07:20:51;91;83;
70554;PMS5003;58104;52.744;15.242;2023-02-28T07:23:17;92;81;
70554;PMS5003;58104;52.744;15.242;2023-02-28T07:25:42;91;84;
70554;PMS5003;58104;52.744;15.242;2023-02-28T07:28:07;102;89;
70554;PMS5003;58104;52.744;15.242;2023-02-28T07:30:32;94;83;
70554;PMS5003;58104;52.744;15.242;2023-02-28T07:32:58;96;89;
70554;PMS5003;58104;52.744;15.242;2023-02-28T07:35:23;65;60;
70554;PMS5003;58104;52.744;15.242;2023-02-28T07:37:49;47;45;
70554;PMS5003;58104;52.744;15.242;2023-02-28T07:40:14;43;35;
70554;PMS5003;58104;52.744;15.242;2023-02-28T07:42:41;22;20;
70554;PMS5003;58104;52.744;15.242;2023-02-28T07:45:06;11;8;
70554;PMS5003;58104;52.744;15.242;2023-02-28T07:47:31;3;3;
70554;PMS5003;58104;52.744;15.242;2023-02-28T07:49:56;3;3;
70554;PMS5003;58104;52.744;15.242;2023-02-28T07:52:22;4;3;
70554;PMS5003;58104;52.744;15.242;2023-02-28T07:54:47;2;1;
70554;PMS5003;58104;52.744;15.242;2023-02-28T07:57:13;5;4;
70554;PMS5003;58104;52.744;15.242;2023-02-28T07:59:38;2;2;
70554;PMS5003;58104;52.744;15.242;2023-02-28T08:02:03;1;1;
70554;PMS5003;58104;52.744;15.242;2023-02-28T08:04:31;0;0;
70554;PMS5003;58104;52.744;15.242;2023-02-28T08:06:54;1;1;
70554;PMS5003;58104;52.744;15.242;2023-02-28T08:09:20;0;0;
70554;PMS5003;58104;52.744;15.242;2023-02-28T08:11:45;0;0;
70554;PMS5003;58104;52.744;15.242;2023-02-28T08:14:11;0;0;
70554;PMS5003;58104;52.744;15.242;2023-02-28T08:16:36;1;1;
70554;PMS5003;58104;52.744;15.242;2023-02-28T08:19:01;0;0;
70554;PMS5003;58104;52.744;15.242;2023-02-28T08:21:27;1;1;
70554;PMS5003;58104;52.744;15.242;2023-02-28T08:23:52;0;0;
70554;PMS5003;58104;52.744;15.242;2023-02-28T08:26:18;0;0;
70554;PMS5003;58104;52.744;15.242;2023-02-28T08:28:43;1;1;
70554;PMS5003;58104;52.744;15.242;2023-02-28T08:31:09;3;1;
70554;PMS5003;58104;52.744;15.242;2023-02-28T08:33:34;5;4;
70554;PMS5003;58104;52.744;15.242;2023-02-28T08:35:59;10;6;
70554;PMS5003;58104;52.744;15.242;2023-02-28T08:38:25;7;5;
70554;PMS5003;58104;52.744;15.242;2023-02-28T08:40:53;7;6;
70554;PMS5003;58104;52.744;15.242;2023-02-28T08:43:16;2;2;
70554;PMS5003;58104;52.744;15.242;2023-02-28T08:45:41;7;4;
70554;PMS5003;58104;52.744;15.242;2023-02-28T08:48:06;8;6;
70554;PMS5003;58104;52.744;15.242;2023-02-28T08:50:32;7;5;
70554;PMS5003;58104;52.744;15.242;2023-02-28T08:52:57;7;5;
70554;PMS5003;58104;52.744;15.242;2023-02-28T08:55:23;5;5;
70554;PMS5003;58104;52.744;15.242;2023-02-28T08:57:48;6;5;
70554;PMS5003;58104;52.744;15.242;2023-02-28T09:00:14;6;6;
70554;PMS5003;58104;52.744;15.242;2023-02-28T09:02:39;3;3;
70554;PMS5003;58104;52.744;15.242;2023-02-28T09:05:05;5;4;
70554;PMS5003;58104;52.744;15.242;2023-02-28T09:07:30;5;5;
70554;PMS5003;58104;52.744;15.242;2023-02-28T09:09:55;6;6;
70554;PMS5003;58104;52.744;15.242;2023-02-28T09:12:21;7;5;
70554;PMS5003;58104;52.744;15.242;2023-02-28T09:14:46;8;6;
70554;PMS5003;58104;52.744;15.242;2023-02-28T09:17:11;5;5;
70554;PMS5003;58104;52.744;15.242;2023-02-28T09:19:37;6;6;
70554;PMS5003;58104;52.744;15.242;2023-02-28T09:22:02;8;6;
70554;PMS5003;58104;52.744;15.242;2023-02-28T09:24:27;6;4;
70554;PMS5003;58104;52.744;15.242;2023-02-28T09:26:53;6;6;
70554;PMS5003;58104;52.744;15.242;2023-02-28T09:29:18;6;6;
70554;PMS5003;58104;52.744;15.242;2023-02-28T09:31:44;8;6;
70554;PMS5003;58104;52.744;15.242;2023-02-28T09:34:09;7;6;
70554;PMS5003;58104;52.744;15.242;2023-02-28T09:36:34;8;5;
70554;PMS5003;58104;52.744;15.242;2023-02-28T09:39:00;13;11;
70554;PMS5003;58104;52.744;15.242;2023-02-28T09:41:26;7;7;
70554;PMS5003;58104;52.744;15.242;2023-02-28T09:43:52;10;9;
70554;PMS5003;58104;52.744;15.242;2023-02-28T09:46:21;7;7;
70554;PMS5003;58104;52.744;15.242;2023-02-28T09:48:43;9;7;
70554;PMS5003;58104;52.744;15.242;2023-02-28T09:51:09;7;7;
70554;PMS5003;58104;52.744;15.242;2023-02-28T09:53:33;6;6;
70554;PMS5003;58104;52.744;15.242;2023-02-28T09:55:58;9;7;
70554;PMS5003;58104;52.744;15.242;2023-02-28T09:58:26;9;8;
70554;PMS5003;58104;52.744;15.242;2023-02-28T10:00:50;22;17;
70554;PMS5003;58104;52.744;15.242;2023-02-28T10:03:19;15;14;
70554;PMS5003;58104;52.744;15.242;2023-02-28T10:05:41;29;22;
70554;PMS5003;58104;52.744;15.242;2023-02-28T10:08:07;23;22;
70554;PMS5003;58104;52.744;15.242;2023-02-28T10:10:32;25;24;
70554;PMS5003;58104;52.744;15.242;2023-02-28T10:12:57;26;22;
70554;PMS5003;58104;52.744;15.242;2023-02-28T10:15:21;24;20;
70554;PMS5003;58104;52.744;15.242;2023-02-28T10:17:47;23;21;
70554;PMS5003;58104;52.744;15.242;2023-02-28T10:20:12;25;20;
70554;PMS5003;58104;52.744;15.242;2023-02-28T10:22:38;21;17;
70554;PMS5003;58104;52.744;15.242;2023-02-28T10:25:05;23;21;
70554;PMS5003;58104;52.744;15.242;2023-02-28T10:27:28;22;21;
70554;PMS5003;58104;52.744;15.242;2023-02-28T10:29:54;21;18;
70554;PMS5003;58104;52.744;15.242;2023-02-28T10:32:18;22;20;
70554;PMS5003;58104;52.744;15.242;2023-02-28T10:34:44;26;22;
70554;PMS5003;58104;52.744;15.242;2023-02-28T10:37:09;14;13;
70554;PMS5003;58104;52.744;15.242;2023-02-28T10:39:37;17;14;
70554;PMS5003;58104;52.744;15.242;2023-02-28T10:41:59;19;17;
70554;PMS5003;58104;52.744;15.242;2023-02-28T10:44:24;19;17;
70554;PMS5003;58104;52.744;15.242;2023-02-28T10:46:50;19;14;
70554;PMS5003;58104;52.744;15.242;2023-02-28T10:49:17;18;15;
70554;PMS5003;58104;52.744;15.242;2023-02-28T10:51:40;17;17;
70554;PMS5003;58104;52.744;15.242;2023-02-28T10:54:06;19;17;
70554;PMS5003;58104;52.744;15.242;2023-02-28T10:56:31;16;13;
70554;PMS5003;58104;52.744;15.242;2023-02-28T10:58:57;16;16;
70554;PMS5003;58104;52.744;15.242;2023-02-28T11:01:22;18;15;
70554;PMS5003;58104;52.744;15.242;2023-02-28T11:03:47;18;16;
70554;PMS5003;58104;52.744;15.242;2023-02-28T11:06:14;21;16;
70554;PMS5003;58104;52.744;15.242;2023-02-28T11:11:04;18;14;
70554;PMS5003;58104;52.744;15.242;2023-02-28T11:13:29;17;13;
70554;PMS5003;58104;52.744;15.242;2023-02-28T11:15:54;15;13;
70554;PMS5003;58104;52.744;15.242;2023-02-28T11:18:21;19;16;
70554;PMS5003;58104;52.744;15.242;2023-02-28T11:20:47;16;14;
70554;PMS5003;58104;52.744;15.242;2023-02-28T11:23:11;16;14;
70554;PMS5003;58104;52.744;15.242;2023-02-28T11:25:36;20;16;
70554;PMS5003;58104;52.744;15.242;2023-02-28T11:28:02;19;16;
70554;PMS5003;58104;52.744;15.242;2023-02-28T11:30:28;18;15;
70554;PMS5003;58104;52.744;15.242;2023-02-28T11:32:52;12;11;
70554;PMS5003;58104;52.744;15.242;2023-02-28T11:35:18;12;12;
70554;PMS5003;58104;52.744;15.242;2023-02-28T11:37:42;16;13;
70554;PMS5003;58104;52.744;15.242;2023-02-28T11:40:09;14;14;
70554;PMS5003;58104;52.744;15.242;2023-02-28T11:42:40;15;12;
70554;PMS5003;58104;52.744;15.242;2023-02-28T11:45:02;16;15;
70554;PMS5003;58104;52.744;15.242;2023-02-28T11:47:26;20;14;
70554;PMS5003;58104;52.744;15.242;2023-02-28T11:50:03;15;13;
70554;PMS5003;58104;52.744;15.242;2023-02-28T11:52:18;15;13;
70554;PMS5003;58104;52.744;15.242;2023-02-28T11:54:47;18;13;
70554;PMS5003;58104;52.744;15.242;2023-02-28T11:57:08;14;13;
70554;PMS5003;58104;52.744;15.242;2023-02-28T11:59:35;11;11;
70554;PMS5003;58104;52.744;15.242;2023-02-28T12:02:02;10;10;
70554;PMS5003;58104;52.744;15.242;2023-02-28T12:04:24;11;11;
70554;PMS5003;58104;52.744;15.242;2023-02-28T12:06:48;14;14;
70554;PMS5003;58104;52.744;15.242;2023-02-28T12:09:16;14;12;
70554;PMS5003;58104;52.744;15.242;2023-02-28T12:11:40;14;12;
70554;PMS5003;58104;52.744;15.242;2023-02-28T12:14:09;16;14;
70554;PMS5003;58104;52.744;15.242;2023-02-28T12:16:33;13;11;
70554;PMS5003;58104;52.744;15.242;2023-02-28T12:18:58;13;12;
70554;PMS5003;58104;52.744;15.242;2023-02-28T12:21:21;13;11;
70554;PMS5003;58104;52.744;15.242;2023-02-28T12:23:48;14;11;
70554;PMS5003;58104;52.744;15.242;2023-02-28T12:26:11;11;11;
70554;PMS5003;58104;52.744;15.242;2023-02-28T12:28:35;13;11;
70554;PMS5003;58104;52.744;15.242;2023-02-28T12:31:01;12;8;
70554;PMS5003;58104;52.744;15.242;2023-02-28T12:33:26;14;11;
70554;PMS5003;58104;52.744;15.242;2023-02-28T12:35:54;9;9;
70554;PMS5003;58104;52.744;15.242;2023-02-28T12:38:19;11;11;
70554;PMS5003;58104;52.744;15.242;2023-02-28T12:40:45;11;10;
70554;PMS5003;58104;52.744;15.242;2023-02-28T12:43:09;12;8;
70554;PMS5003;58104;52.744;15.242;2023-02-28T12:45:39;12;11;
70554;PMS5003;58104;52.744;15.242;2023-02-28T12:48:00;11;9;
70554;PMS5003;58104;52.744;15.242;2023-02-28T12:50:25;10;10;
70554;PMS5003;58104;52.744;15.242;2023-02-28T12:52:52;9;8;
70554;PMS5003;58104;52.744;15.242;2023-02-28T12:55:19;8;7;
70554;PMS5003;58104;52.744;15.242;2023-02-28T12:57:42;11;11;
70554;PMS5003;58104;52.744;15.242;2023-02-28T13:00:10;7;7;
70554;PMS5003;58104;52.744;15.242;2023-02-28T13:02:38;12;11;
70554;PMS5003;58104;52.744;15.242;2023-02-28T13:07:31;11;9;
70554;PMS5003;58104;52.744;15.242;2023-02-28T13:09:51;14;14;
70554;PMS5003;58104;52.744;15.242;2023-02-28T13:12:14;12;12;
70554;PMS5003;58104;52.744;15.242;2023-02-28T13:14:39;12;12;
70554;PMS5003;58104;52.744;15.242;2023-02-28T13:19:30;10;9;
70554;PMS5003;58104;52.744;15.242;2023-02-28T13:21:55;9;9;
70554;PMS5003;58104;52.744;15.242;2023-02-28T13:36:28;9;9;
70554;PMS5003;58104;52.744;15.242;2023-02-28T13:38:53;10;10;
70554;PMS5003;58104;52.744;15.242;2023-02-28T13:46:11;14;12;
70554;PMS5003;58104;52.744;15.242;2023-02-28T13:48:34;11;10;
70554;PMS5003;58104;52.744;15.242;2023-02-28T13:51:00;13;11;
70554;PMS5003;58104;52.744;15.242;2023-02-28T13:53:29;9;8;
70554;PMS5003;58104;52.744;15.242;2023-02-28T13:55:51;16;12;
70554;PMS5003;58104;52.744;15.242;2023-02-28T13:58:21;11;11;
70554;PMS5003;58104;52.744;15.242;2023-02-28T14:00:44;9;9;
70554;PMS5003;58104;52.744;15.242;2023-02-28T14:03:11;12;11;
70554;PMS5003;58104;52.744;15.242;2023-02-28T14:05:31;8;8;
70554;PMS5003;58104;52.744;15.242;2023-02-28T14:07:57;10;8;
70554;PMS5003;58104;52.744;15.242;2023-02-28T14:10:24;10;9;
70554;PMS5003;58104;52.744;15.242;2023-02-28T14:17:38;7;7;
70554;PMS5003;58104;52.744;15.242;2023-02-28T14:20:04;8;8;
70554;PMS5003;58104;52.744;15.242;2023-02-28T14:27:23;6;6;
70554;PMS5003;58104;52.744;15.242;2023-02-28T14:32:12;7;7;
70554;PMS5003;58104;52.744;15.242;2023-02-28T14:34:37;10;10;
70554;PMS5003;58104;52.744;15.242;2023-02-28T14:37:02;8;8;
70554;PMS5003;58104;52.744;15.242;2023-02-28T14:39:26;10;10;
70554;PMS5003;58104;52.744;15.242;2023-02-28T14:41:52;10;7;
70554;PMS5003;58104;52.744;15.242;2023-02-28T14:44:18;12;11;
70554;PMS5003;58104;52.744;15.242;2023-02-28T14:46:43;12;9;
70554;PMS5003;58104;52.744;15.242;2023-02-28T14:49:12;12;12;
70554;PMS5003;58104;52.744;15.242;2023-02-28T14:51:33;9;7;
70554;PMS5003;58104;52.744;15.242;2023-02-28T14:53:59;10;10;
70554;PMS5003;58104;52.744;15.242;2023-02-28T14:56:26;12;9;
70554;PMS5003;58104;52.744;15.242;2023-02-28T14:58:51;9;9;
70554;PMS5003;58104;52.744;15.242;2023-02-28T15:01:18;10;7;
70554;PMS5003;58104;52.744;15.242;2023-02-28T15:03:41;12;10;
70554;PMS5003;58104;52.744;15.242;2023-02-28T15:06:13;9;9;
70554;PMS5003;58104;52.744;15.242;2023-02-28T15:08:32;11;10;
70554;PMS5003;58104;52.744;15.242;2023-02-28T15:10:57;9;9;
70554;PMS5003;58104;52.744;15.242;2023-02-28T15:13:22;11;9;
70554;PMS5003;58104;52.744;15.242;2023-02-28T15:15:49;12;10;
70554;PMS5003;58104;52.744;15.242;2023-02-28T15:18:15;12;10;
70554;PMS5003;58104;52.744;15.242;2023-02-28T15:20:39;21;14;
70554;PMS5003;58104;52.744;15.242;2023-02-28T15:23:04;18;11;
70554;PMS5003;58104;52.744;15.242;2023-02-28T15:25:30;17;11;
70554;PMS5003;58104;52.744;15.242;2023-02-28T15:27:55;16;14;
70554;PMS5003;58104;52.744;15.242;2023-02-28T15:30:21;22;15;
70554;PMS5003;58104;52.744;15.242;2023-02-28T15:37:39;16;14;
70554;PMS5003;58104;52.744;15.242;2023-02-28T15:40:10;16;13;
70554;PMS5003;58104;52.744;15.242;2023-02-28T15:42:28;17;14;
70554;PMS5003;58104;52.744;15.242;2023-02-28T15:44:53;20;13;
70554;PMS5003;58104;52.744;15.242;2023-02-28T15:47:19;23;19;
70554;PMS5003;58104;52.744;15.242;2023-02-28T15:49:45;23;13;
70554;PMS5003;58104;52.744;15.242;2023-02-28T15:52:10;22;17;
70554;PMS5003;58104;52.744;15.242;2023-02-28T15:54:35;14;11;
70554;PMS5003;58104;52.744;15.242;2023-02-28T15:57:02;21;16;
70554;PMS5003;58104;52.744;15.242;2023-02-28T15:59:26;18;15;
70554;PMS5003;58104;52.744;15.242;2023-02-28T16:04:18;19;16;
70554;PMS5003;58104;52.744;15.242;2023-02-28T16:06:42;22;16;
70554;PMS5003;58104;52.744;15.242;2023-02-28T16:09:10;15;14;
70554;PMS5003;58104;52.744;15.242;2023-02-28T16:11:33;13;12;
70554;PMS5003;58104;52.744;15.242;2023-02-28T16:13:58;18;14;
70554;PMS5003;58104;52.744;15.242;2023-02-28T16:16:24;15;12;
70554;PMS5003;58104;52.744;15.242;2023-02-28T16:18:49;13;12;
70554;PMS5003;58104;52.744;15.242;2023-02-28T16:21:14;17;12;
70554;PMS5003;58104;52.744;15.242;2023-02-28T16:23:40;18;14;
70554;PMS5003;58104;52.744;15.242;2023-02-28T16:26:05;19;14;
70554;PMS5003;58104;52.744;15.242;2023-02-28T16:28:31;17;15;
70554;PMS5003;58104;52.744;15.242;2023-02-28T16:30:56;13;11;
70554;PMS5003;58104;52.744;15.242;2023-02-28T16:33:21;20;17;
70554;PMS5003;58104;52.744;15.242;2023-02-28T16:35:47;15;13;
70554;PMS5003;58104;52.744;15.242;2023-02-28T16:38:12;20;16;
70554;PMS5003;58104;52.744;15.242;2023-02-28T16:40:37;19;16;
70554;PMS5003;58104;52.744;15.242;2023-02-28T16:43:04;16;13;
70554;PMS5003;58104;52.744;15.242;2023-02-28T16:45:28;13;10;
70554;PMS5003;58104;52.744;15.242;2023-02-28T16:47:54;11;10;
70554;PMS5003;58104;52.744;15.242;2023-02-28T16:50:20;16;11;
70554;PMS5003;58104;52.744;15.242;2023-02-28T16:52:45;15;13;
70554;PMS5003;58104;52.744;15.242;2023-02-28T16:55:10;15;15;
70554;PMS5003;58104;52.744;15.242;2023-02-28T16:57:36;14;11;
70554;PMS5003;58104;52.744;15.242;2023-02-28T17:00:01;13;11;
70554;PMS5003;58104;52.744;15.242;2023-02-28T17:02:26;20;16;
70554;PMS5003;58104;52.744;15.242;2023-02-28T17:04:52;12;12;